Time;durP1;ratioP1;P1;durP2;ratioP2;P2;SDS_P1;SDS_P2;PMS_P1;PMS_P2;Temp;Humidity;BMP_temperature;BMP_pressure;BME280_temperature;BME280_humidity;BME280_pressure;Samples;Min_cycle;Max_cycle;Signal;HPM_P1;HPM_P2
2023/01/27 00:00:53;;;;;;;10.50;4.75;;;0.20;99.90;;;;;;5009679;28;20457;-78
2023/01/27 00:03:20;;;;;;;26.00;7.03;;;0.20;99.90;;;;;;5011461;28;20117;-78
2023/01/27 00:05:47;;;;;;;14.00;6.75;;;0.30;99.90;;;;;;5008225;28;20513;-78
2023/01/27 00:08:12;;;;;;;8.50;5.00;;;0.30;99.90;;;;;;5011837;28;20040;-77
2023/01/27 00:10:38;;;;;;;16.27;6.10;;;0.30;99.90;;;;;;5008218;28;20038;-77
2023/01/27 00:15:49;;;;;;;19.73;8.65;;;0.20;99.90;;;;;;5008979;28;20569;-78
2023/01/27 00:18:14;;;;;;;10.50;5.82;;;0.00;99.90;;;;;;5011396;28;20132;-77
2023/01/27 00:26:16;;;;;;;11.07;5.22;;;0.20;99.90;;;;;;5010729;28;20053;-78
2023/01/27 00:28:44;;;;;;;12.50;5.88;;;0.30;99.90;;;;;;5010600;28;20057;-78
2023/01/27 00:34:07;;;;;;;14.57;6.20;;;0.30;99.90;;;;;;5012458;28;20115;-79
2023/01/27 00:36:35;;;;;;;12.40;7.03;;;0.20;99.90;;;;;;5006637;28;20040;-78
2023/01/27 00:39:01;;;;;;;11.82;6.05;;;0.30;99.90;;;;;;5011770;28;20482;-78
2023/01/27 00:41:27;;;;;;;9.55;4.88;;;0.20;99.90;;;;;;5008835;28;20038;-78
2023/01/27 00:43:54;;;;;;;11.98;4.20;;;0.10;99.90;;;;;;5011697;28;20033;-78
2023/01/27 00:46:24;;;;;;;8.80;5.35;;;0.10;99.90;;;;;;5007555;28;20022;-78
2023/01/27 00:48:51;;;;;;;6.43;4.43;;;0.10;99.90;;;;;;5010553;28;20491;-78
2023/01/27 00:51:18;;;;;;;9.52;4.85;;;0.10;99.90;;;;;;5002263;28;20033;-78
2023/01/27 00:53:45;;;;;;;26.25;7.82;;;0.30;99.90;;;;;;4977690;28;20033;-78
2023/01/27 00:56:11;;;;;;;10.77;4.85;;;0.30;99.90;;;;;;4990076;28;20413;-77
2023/01/27 00:58:37;;;;;;;13.38;4.43;;;0.30;99.90;;;;;;4989246;28;20501;-78
2023/01/27 01:01:07;;;;;;;9.32;6.05;;;0.30;99.90;;;;;;4988545;28;20034;-79
2023/01/27 01:03:35;;;;;;;9.80;4.20;;;0.20;99.90;;;;;;5010252;28;20045;-78
2023/01/27 01:06:06;;;;;;;10.40;5.03;;;0.20;99.90;;;;;;5007888;28;20109;-78
2023/01/27 01:08:33;;;;;;;;;;;0.20;99.90;;;;;;5010459;28;20099;-78
2023/01/27 01:11:00;;;;;;;9.57;5.82;;;0.20;99.90;;;;;;4993173;28;19917;-78
2023/01/27 01:13:27;;;;;;;8.20;4.55;;;0.20;99.90;;;;;;5010400;28;20080;-78
2023/01/27 01:15:54;;;;;;;10.07;4.85;;;0.20;99.90;;;;;;5006240;28;20398;-78
2023/01/27 01:18:20;;;;;;;8.93;5.35;;;0.30;99.90;;;;;;5009455;28;20405;-78
2023/01/27 01:20:46;;;;;;;14.63;6.28;;;0.30;99.90;;;;;;5006984;28;20030;-78
2023/01/27 01:23:14;;;;;;;13.55;6.15;;;0.40;99.90;;;;;;5010197;28;20026;-78
2023/01/27 01:25:41;;;;;;;14.30;6.55;;;0.40;99.90;;;;;;5009053;28;20114;-77
2023/01/27 01:28:08;;;;;;;10.32;5.82;;;0.40;99.90;;;;;;5010737;28;20030;-78
2023/01/27 01:30:35;;;;;;;23.05;6.78;;;0.40;99.90;;;;;;5006312;28;20044;-78
2023/01/27 01:33:02;;;;;;;18.02;7.15;;;0.50;99.90;;;;;;5010032;28;20064;-77
2023/01/27 01:35:29;;;;;;;16.33;7.60;;;0.50;99.90;;;;;;5008691;28;20131;-78
2023/01/27 01:37:55;;;;;;;9.82;6.13;;;0.40;99.90;;;;;;5008999;28;20120;-78
2023/01/27 01:40:21;;;;;;;11.88;7.35;;;0.30;99.90;;;;;;5010117;28;20443;-78
2023/01/27 01:42:58;;;;;;;13.45;6.32;;;0.20;99.90;;;;;;5011244;28;20044;-77
2023/01/27 01:45:30;;;;;;;17.55;7.15;;;0.20;99.90;;;;;;5009958;28;20037;-78
2023/01/27 01:48:07;;;;;;;12.73;5.72;;;0.20;99.90;;;;;;5001181;28;20041;-78
2023/01/27 01:50:34;;;;;;;13.63;6.72;;;0.10;99.90;;;;;;5010061;28;20370;-79
2023/01/27 01:53:02;;;;;;;12.20;6.72;;;0.20;99.90;;;;;;5009900;28;20034;-77
2023/01/27 01:55:31;;;;;;;16.55;8.18;;;0.10;99.90;;;;;;5010131;28;20058;-78
2023/01/27 01:57:57;;;;;;;19.95;7.75;;;0.00;99.90;;;;;;5010495;28;20430;-77
2023/01/27 02:00:24;;;;;;;13.48;6.32;;;0.10;99.90;;;;;;5011736;28;20478;-77
2023/01/27 02:02:50;;;;;;;13.50;5.93;;;0.10;99.90;;;;;;5010888;28;20056;-78
2023/01/27 02:05:30;;;;;;;11.48;6.60;;;0.10;99.90;;;;;;4985594;28;20022;-78
2023/01/27 02:08:25;;;;;;;17.33;6.97;;;0.10;99.90;;;;;;4985141;28;20100;-77
2023/01/27 02:10:53;;;;;;;14.00;6.50;;;0.10;99.90;;;;;;5018843;28;20088;-77
2023/01/27 02:13:19;;;;;;;10.48;6.35;;;0.20;99.90;;;;;;5013215;28;20049;-77
2023/01/27 02:15:45;;;;;;;12.82;5.28;;;0.30;99.90;;;;;;5011787;28;20034;-77
2023/01/27 02:18:13;;;;;;;15.05;6.68;;;0.40;99.90;;;;;;4992896;28;20087;-77
2023/01/27 02:20:49;;;;;;;12.65;4.97;;;0.40;99.90;;;;;;4995014;28;20038;-77
2023/01/27 02:23:59;;;;;;;11.52;4.82;;;0.50;99.90;;;;;;4997021;28;20445;-78
2023/01/27 02:26:34;;;;;;;16.55;5.78;;;0.50;99.90;;;;;;4990310;28;20069;-78
2023/01/27 02:29:06;;;;;;;12.35;5.65;;;0.50;99.90;;;;;;5013164;28;20088;-78
2023/01/27 02:31:32;;;;;;;14.88;7.28;;;0.40;99.90;;;;;;5009616;28;20102;-77
2023/01/27 02:34:13;;;;;;;27.92;6.70;;;0.50;99.90;;;;;;5013927;28;20033;-77
2023/01/27 02:37:04;;;;;;;14.20;5.13;;;0.40;99.90;;;;;;5020712;23;20058;-76
2023/01/27 02:39:41;;;;;;;7.72;4.18;;;0.50;99.90;;;;;;4997026;28;20040;-76
2023/01/27 02:42:10;;;;;;;9.05;5.20;;;0.50;99.90;;;;;;5000659;28;20446;-76
2023/01/27 02:44:36;;;;;;;9.23;4.15;;;0.50;99.90;;;;;;4996251;28;20105;-77
2023/01/27 02:47:02;;;;;;;9.18;4.35;;;0.50;99.90;;;;;;4975483;28;20125;-76
2023/01/27 02:49:27;;;;;;;11.00;5.50;;;0.50;99.90;;;;;;4992883;28;20034;-76
2023/01/27 02:51:53;;;;;;;19.02;6.55;;;0.60;99.90;;;;;;4975951;28;20034;-76
2023/01/27 02:54:19;;;;;;;12.50;5.75;;;0.40;99.90;;;;;;4993844;28;20037;-76
2023/01/27 02:56:44;;;;;;;8.45;5.85;;;0.40;99.90;;;;;;4992557;28;20045;-76
2023/01/27 02:59:10;;;;;;;8.45;3.75;;;0.50;99.90;;;;;;4993993;28;20038;-76
2023/01/27 03:01:36;;;;;;;11.88;5.57;;;0.50;99.90;;;;;;4993364;28;20372;-76
2023/01/27 03:04:02;;;;;;;10.82;5.82;;;0.50;99.90;;;;;;4992380;28;20044;-76
2023/01/27 03:06:28;;;;;;;11.30;5.30;;;0.60;99.90;;;;;;4992156;28;20040;-76
2023/01/27 03:08:54;;;;;;;11.45;5.32;;;0.60;99.90;;;;;;4991604;28;20022;-76
2023/01/27 03:14:05;;;;;;;11.80;5.35;;;0.70;99.90;;;;;;4993520;28;20054;-76
2023/01/27 03:19:15;;;;;;;19.17;4.35;;;0.70;99.90;;;;;;4985541;28;20033;-76
2023/01/27 03:21:41;;;;;;;12.23;5.15;;;0.80;99.90;;;;;;4992593;28;20393;-76
2023/01/27 03:24:06;;;;;;;8.25;4.05;;;0.80;99.90;;;;;;4993403;28;20113;-76
2023/01/27 03:26:32;;;;;;;6.50;4.30;;;0.70;99.90;;;;;;4991933;28;20049;-76
2023/01/27 03:31:42;;;;;;;17.00;5.55;;;0.80;99.90;;;;;;4992955;28;20371;-75
2023/01/27 03:34:07;;;;;;;15.63;5.32;;;0.80;99.90;;;;;;4993133;28;20026;-75
2023/01/27 03:47:31;;;;;;;7.97;4.55;;;0.70;99.90;;;;;;4992255;28;20081;-75
2023/01/27 03:49:56;;;;;;;12.00;6.43;;;0.70;99.90;;;;;;4992181;28;20073;-75
2023/01/27 03:52:22;;;;;;;20.42;5.45;;;0.70;99.90;;;;;;4993035;28;20142;-75
2023/01/27 03:54:48;;;;;;;8.98;3.88;;;0.80;99.90;;;;;;4992332;28;20038;-75
2023/01/27 03:57:13;;;;;;;15.50;7.50;;;0.70;99.90;;;;;;4992276;28;20038;-75
2023/01/27 03:59:39;;;;;;;14.07;6.18;;;0.60;99.90;;;;;;4992710;28;20117;-75
2023/01/27 04:07:36;;;;;;;10.93;3.97;;;0.70;99.90;;;;;;4986470;28;20112;-75
2023/01/27 04:10:05;;;;;;;12.90;5.90;;;0.70;99.90;;;;;;4990527;28;20487;-75
2023/01/27 04:12:31;;;;;;;19.45;7.63;;;0.70;99.90;;;;;;4975211;28;20034;-75
2023/01/27 04:14:57;;;;;;;14.18;5.72;;;0.60;99.90;;;;;;4987574;28;20026;-75
2023/01/27 04:17:23;;;;;;;16.08;6.53;;;0.70;99.90;;;;;;4973502;28;20045;-75
2023/01/27 04:19:48;;;;;;;11.52;5.88;;;0.70;99.90;;;;;;4991052;28;20040;-75
2023/01/27 04:22:16;;;;;;;15.07;5.65;;;0.70;99.90;;;;;;4992545;28;20026;-75
2023/01/27 04:24:42;;;;;;;12.95;4.70;;;0.60;99.90;;;;;;4989946;28;20533;-74
2023/01/27 04:27:12;;;;;;;10.90;5.45;;;0.60;99.90;;;;;;4990557;28;20117;-75
2023/01/27 04:29:40;;;;;;;10.13;4.93;;;0.60;99.90;;;;;;4972875;28;20045;-75
2023/01/27 04:32:11;;;;;;;18.15;6.30;;;0.60;99.90;;;;;;4990795;28;20030;-75
2023/01/27 04:34:38;;;;;;;10.38;5.55;;;0.60;99.90;;;;;;4973685;28;20049;-75
2023/01/27 04:37:06;;;;;;;13.10;5.05;;;0.70;99.90;;;;;;4989857;28;20088;-76
2023/01/27 04:39:33;;;;;;;10.68;3.83;;;0.70;99.90;;;;;;4989684;28;20030;-75
2023/01/27 04:41:59;;;;;;;13.60;4.68;;;0.70;99.90;;;;;;4991605;28;20109;-75
2023/01/27 04:44:25;;;;;;;9.90;5.47;;;0.80;99.90;;;;;;4990786;28;20114;-75
2023/01/27 04:46:52;;;;;;;13.63;5.53;;;0.80;99.90;;;;;;4990131;28;20057;-75
2023/01/27 04:49:18;;;;;;;9.05;5.97;;;0.80;99.90;;;;;;4989268;28;20597;-75
2023/01/27 04:51:44;;;;;;;10.77;5.13;;;0.80;99.90;;;;;;4990543;28;20027;-75
2023/01/27 04:54:10;;;;;;;8.45;6.07;;;0.80;99.90;;;;;;4989863;28;20049;-75
2023/01/27 04:56:40;;;;;;;12.02;4.82;;;0.70;99.90;;;;;;4990894;28;20034;-74
2023/01/27 04:59:15;;;;;;;8.40;4.07;;;0.80;99.90;;;;;;4991388;28;20035;-75
2023/01/27 05:01:41;;;;;;;19.05;6.90;;;0.70;99.90;;;;;;4990491;28;20483;-75
2023/01/27 05:04:07;;;;;;;10.82;3.65;;;0.80;99.90;;;;;;4991109;28;20041;-75
2023/01/27 05:06:33;;;;;;;10.70;6.05;;;0.70;99.90;;;;;;4973162;28;20914;-75
2023/01/27 05:09:00;;;;;;;10.55;4.70;;;0.80;99.90;;;;;;4991453;28;20403;-75
2023/01/27 05:11:25;;;;;;;19.83;5.38;;;0.80;99.90;;;;;;4973965;28;20023;-75
2023/01/27 05:13:51;;;;;;;18.17;5.10;;;0.80;99.90;;;;;;4989642;28;20027;-74
2023/01/27 05:16:23;;;;;;;14.23;7.50;;;0.80;99.90;;;;;;4987233;28;20514;-75
2023/01/27 05:18:51;;;;;;;16.63;6.13;;;0.80;99.90;;;;;;4989429;28;20034;-75
2023/01/27 05:21:29;;;;;;;17.45;5.57;;;0.80;99.90;;;;;;4990360;28;20117;-75
2023/01/27 05:23:56;;;;;;;17.42;4.20;;;0.80;99.90;;;;;;4971915;28;20173;-75
2023/01/27 05:26:25;;;;;;;14.85;4.90;;;0.70;99.90;;;;;;4973002;28;20102;-75
2023/01/27 05:28:52;;;;;;;8.40;4.93;;;0.80;99.90;;;;;;4989596;28;20038;-75
2023/01/27 05:31:28;;;;;;;21.10;5.35;;;0.80;99.90;;;;;;4990043;28;20030;-75
2023/01/27 05:33:55;;;;;;;8.45;5.40;;;0.80;99.90;;;;;;4973219;28;20057;-75
2023/01/27 05:36:23;;;;;;;16.50;6.38;;;0.90;99.90;;;;;;4989491;28;20521;-74
2023/01/27 05:38:49;;;;;;;12.00;5.55;;;0.90;99.90;;;;;;4977060;28;20096;-74
2023/01/27 05:41:17;;;;;;;17.73;6.15;;;0.90;99.90;;;;;;4980922;28;20379;-75
2023/01/27 05:43:45;;;;;;;13.25;5.25;;;1.00;99.90;;;;;;4971790;28;20034;-75
2023/01/27 05:46:17;;;;;;;8.75;4.53;;;1.00;99.90;;;;;;4970403;28;20034;-72
2023/01/27 05:48:49;;;;;;;22.80;7.10;;;1.00;99.90;;;;;;4974148;28;20120;-75
2023/01/27 05:51:17;;;;;;;9.65;5.78;;;1.00;99.90;;;;;;4983059;28;20030;-72
2023/01/27 05:53:44;;;;;;;7.60;4.18;;;1.00;99.90;;;;;;4986606;28;20502;-71
2023/01/27 05:56:13;;;;;;;17.88;6.03;;;1.10;99.90;;;;;;4989943;28;20106;-72
2023/01/27 05:58:39;;;;;;;11.43;5.43;;;1.00;99.90;;;;;;4988526;28;20050;-72
2023/01/27 06:01:20;;;;;;;16.48;6.47;;;1.00;99.90;;;;;;4983308;28;20031;-72
2023/01/27 06:03:47;;;;;;;10.10;4.07;;;1.00;99.90;;;;;;4989985;28;20026;-71
2023/01/27 06:06:17;;;;;;;9.52;5.57;;;1.00;99.90;;;;;;4988951;28;20030;-72
2023/01/27 06:08:44;;;;;;;16.80;6.20;;;1.00;99.90;;;;;;4988388;28;20039;-72
2023/01/27 06:11:11;;;;;;;20.88;5.43;;;1.10;99.90;;;;;;4973262;28;20041;-72
2023/01/27 06:13:37;;;;;;;13.38;5.88;;;1.10;99.90;;;;;;4984540;28;20418;-72
2023/01/27 06:16:08;;;;;;;12.75;5.15;;;1.20;99.90;;;;;;4989595;28;20034;-72
2023/01/27 06:18:34;;;;;;;10.60;5.78;;;1.20;99.90;;;;;;4983318;28;20106;-74
2023/01/27 06:21:02;;;;;;;17.98;5.72;;;1.20;99.90;;;;;;4986254;28;20041;-74
2023/01/27 06:23:28;;;;;;;9.38;4.53;;;1.20;99.90;;;;;;4988726;28;20059;-74
2023/01/27 06:25:55;;;;;;;10.90;4.88;;;1.20;99.90;;;;;;4988360;28;20061;-73
2023/01/27 06:28:21;;;;;;;13.30;7.30;;;1.20;99.90;;;;;;4972111;28;20026;-73
2023/01/27 06:30:47;;;;;;;13.95;6.60;;;1.10;99.90;;;;;;4989398;28;20046;-72
2023/01/27 06:33:13;;;;;;;13.85;6.43;;;1.20;99.90;;;;;;4989221;28;20034;-72
2023/01/27 06:35:39;;;;;;;14.90;5.43;;;1.20;99.90;;;;;;4989364;28;20100;-72
2023/01/27 06:38:11;;;;;;;11.43;5.18;;;1.20;99.90;;;;;;4989741;28;20038;-72
2023/01/27 06:40:37;;;;;;;10.27;6.72;;;1.20;99.90;;;;;;4988410;28;20122;-72
2023/01/27 06:43:03;;;;;;;7.22;4.53;;;1.20;99.90;;;;;;4990434;28;20090;-72
2023/01/27 06:45:29;;;;;;;13.55;6.10;;;1.20;99.90;;;;;;4989955;28;20038;-72
2023/01/27 06:47:57;;;;;;;28.70;6.07;;;1.20;99.90;;;;;;4993071;28;20604;-72
2023/01/27 06:50:25;;;;;;;11.95;4.68;;;1.20;99.90;;;;;;4993079;28;20046;-72
2023/01/27 06:52:51;;;;;;;14.93;4.72;;;1.20;99.90;;;;;;4992651;28;20045;-71
2023/01/27 06:55:18;;;;;;;11.32;5.45;;;1.20;99.90;;;;;;4995324;28;20027;-73
2023/01/27 06:57:47;;;;;;;16.15;6.03;;;1.10;99.90;;;;;;4990894;28;20121;-71
2023/01/27 07:00:15;;;;;;;9.88;4.40;;;1.20;99.90;;;;;;4989746;28;20121;-72
2023/01/27 07:02:41;;;;;;;13.48;5.50;;;1.20;99.90;;;;;;4991834;28;20035;-76
2023/01/27 07:05:08;;;;;;;5.05;3.33;;;1.20;99.90;;;;;;4991994;28;20063;-78
2023/01/27 07:07:33;;;;;;;13.57;4.05;;;1.30;99.90;;;;;;4992994;28;20046;-74
2023/01/27 07:09:59;;;;;;;10.45;5.10;;;1.20;99.90;;;;;;4974886;28;20030;-76
2023/01/27 07:12:25;;;;;;;8.43;4.93;;;1.30;99.90;;;;;;4993766;28;20058;-73
2023/01/27 07:14:51;;;;;;;13.60;7.07;;;1.30;99.90;;;;;;4992558;28;20034;-76
2023/01/27 07:17:16;;;;;;;8.00;4.38;;;1.30;99.90;;;;;;4975146;28;20101;-77
2023/01/27 07:19:42;;;;;;;15.32;6.13;;;1.40;99.90;;;;;;4993267;28;20096;-76
2023/01/27 07:22:08;;;;;;;9.75;4.13;;;1.40;99.90;;;;;;4992971;28;20034;-72
2023/01/27 07:24:33;;;;;;;11.48;5.15;;;1.50;99.90;;;;;;4992397;28;20038;-76
2023/01/27 07:26:59;;;;;;;10.88;5.53;;;1.40;99.90;;;;;;4991621;28;20031;-74
2023/01/27 07:29:25;;;;;;;8.73;3.17;;;1.30;99.90;;;;;;4976217;28;20117;-74
2023/01/27 07:31:51;;;;;;;10.90;4.85;;;1.30;99.90;;;;;;4991900;28;20044;-74
2023/01/27 07:34:16;;;;;;;15.15;5.68;;;1.40;99.90;;;;;;4993523;28;20050;-74
2023/01/27 07:36:42;;;;;;;6.68;3.35;;;1.40;99.90;;;;;;4991531;28;20084;-74
2023/01/27 07:39:07;;;;;;;20.40;5.05;;;1.50;99.90;;;;;;4993103;28;20027;-75
2023/01/27 07:41:33;;;;;;;16.33;7.88;;;1.50;99.90;;;;;;4992105;28;20451;-75
2023/01/27 07:43:59;;;;;;;16.60;5.38;;;1.40;99.90;;;;;;4993139;28;20403;-75
2023/01/27 07:46:25;;;;;;;7.18;4.20;;;1.50;99.90;;;;;;4992330;28;20027;-75
2023/01/27 07:48:50;;;;;;;10.80;4.55;;;1.50;99.90;;;;;;4993407;28;20030;-76
2023/01/27 07:51:16;;;;;;;14.48;5.35;;;1.40;99.90;;;;;;4992539;28;20033;-77
2023/01/27 07:53:42;;;;;;;10.80;4.82;;;1.50;99.90;;;;;;4993594;28;20062;-77
2023/01/27 07:56:10;;;;;;;8.95;3.85;;;1.30;99.90;;;;;;4991283;28;20053;-76
2023/01/27 07:58:41;;;;;;;11.10;4.65;;;1.30;99.90;;;;;;4992428;28;20030;-75
2023/01/27 08:01:11;;;;;;;6.38;3.35;;;1.40;99.90;;;;;;4984018;28;20022;-75
2023/01/27 08:03:37;;;;;;;13.70;5.07;;;1.40;99.90;;;;;;4984867;28;20462;-74
2023/01/27 08:06:09;;;;;;;16.52;4.60;;;1.40;99.90;;;;;;4983926;28;20030;-74
2023/01/27 08:08:36;;;;;;;13.50;6.45;;;1.50;99.90;;;;;;4978173;28;20030;-76
2023/01/27 08:11:06;;;;;;;6.43;4.05;;;1.50;99.90;;;;;;4983719;28;20513;-73
2023/01/27 08:13:33;;;;;;;13.25;5.55;;;1.50;99.90;;;;;;4991219;28;20037;-73
2023/01/27 08:16:01;;;;;;;9.13;4.90;;;1.40;99.90;;;;;;4990817;28;20038;-73
2023/01/27 08:18:28;;;;;;;7.75;4.05;;;1.40;99.90;;;;;;4991135;28;20034;-72
2023/01/27 08:20:58;;;;;;;7.38;3.80;;;1.40;99.90;;;;;;4989635;28;20032;-73
2023/01/27 08:23:24;;;;;;;13.90;6.95;;;1.40;99.90;;;;;;4983739;28;20073;-73
2023/01/27 08:25:57;;;;;;;6.78;3.85;;;1.50;99.90;;;;;;4986402;28;20398;-73
2023/01/27 08:28:24;;;;;;;14.15;5.32;;;1.60;99.90;;;;;;4984341;28;20038;-73
2023/01/27 08:30:51;;;;;;;6.78;3.95;;;1.70;99.90;;;;;;4991101;28;20036;-73
2023/01/27 08:33:23;;;;;;;11.93;4.55;;;1.80;99.90;;;;;;4991743;28;20117;-73
2023/01/27 08:35:49;;;;;;;12.60;4.75;;;1.90;99.90;;;;;;4988209;23;20050;-79
2023/01/27 08:38:18;;;;;;;12.55;6.10;;;2.00;99.90;;;;;;5009731;28;20497;-79
2023/01/27 08:40:45;;;;;;;21.50;5.70;;;2.00;99.90;;;;;;5010694;28;20614;-80
2023/01/27 08:43:12;;;;;;;12.85;5.38;;;2.10;99.90;;;;;;5011107;28;20026;-79
2023/01/27 08:45:38;;;;;;;13.38;4.50;;;2.10;99.90;;;;;;4989926;28;20030;-80
2023/01/27 08:48:05;;;;;;;14.40;4.43;;;2.20;99.90;;;;;;4989827;28;20080;-80
2023/01/27 08:50:31;;;;;;;9.50;4.47;;;2.00;99.90;;;;;;4991485;28;20026;-80
2023/01/27 08:52:58;;;;;;;16.58;5.90;;;1.90;99.90;;;;;;4992044;28;20034;-80
2023/01/27 08:55:32;;;;;;;9.75;4.45;;;1.90;99.90;;;;;;4992009;28;20109;-80
2023/01/27 08:57:58;;;;;;;10.50;4.78;;;1.80;99.90;;;;;;4988310;28;20426;-80
2023/01/27 09:00:25;;;;;;;10.27;5.05;;;1.80;99.90;;;;;;4991318;28;20041;-79
2023/01/27 09:02:51;;;;;;;5.55;3.70;;;1.90;99.90;;;;;;4967810;28;20045;-79
2023/01/27 09:05:18;;;;;;;13.10;5.30;;;1.80;99.90;;;;;;4990144;28;20031;-80
2023/01/27 09:07:45;;;;;;;20.25;5.20;;;1.80;99.90;;;;;;4988036;28;20049;-80
2023/01/27 09:10:13;;;;;;;27.15;6.30;;;1.90;99.90;;;;;;4990027;28;20113;-80
2023/01/27 09:12:40;;;;;;;7.90;4.47;;;1.90;99.90;;;;;;4972821;28;20045;-80
2023/01/27 09:15:06;;;;;;;6.85;3.95;;;2.10;99.90;;;;;;4991450;28;20061;-80
2023/01/27 09:17:32;;;;;;;10.80;3.92;;;2.00;99.90;;;;;;4989651;28;20047;-80
2023/01/27 09:19:58;;;;;;;21.45;5.80;;;2.20;99.90;;;;;;4991217;28;20026;-81
2023/01/27 09:22:24;;;;;;;9.07;4.10;;;2.30;99.90;;;;;;4990505;28;20391;-80
2023/01/27 09:24:49;;;;;;;13.50;5.47;;;2.20;99.90;;;;;;4991151;28;20610;-80
2023/01/27 09:27:15;;;;;;;7.57;4.28;;;2.20;99.90;;;;;;4989342;28;20082;-80
2023/01/27 09:29:40;;;;;;;9.80;4.40;;;2.30;99.90;;;;;;4991022;28;20067;-81
2023/01/27 09:32:08;;;;;;;11.30;4.80;;;2.40;99.90;;;;;;4989857;28;20103;-79
2023/01/27 09:34:34;;;;;;;10.57;4.38;;;2.50;99.90;;;;;;4989696;28;20030;-80
2023/01/27 09:37:07;;;;;;;23.42;5.53;;;2.60;99.90;;;;;;4988341;28;20394;-80
2023/01/27 09:39:44;;;;;;;15.18;5.53;;;2.70;99.90;;;;;;4989527;28;20034;-80
2023/01/27 09:42:31;;;;;;;10.45;4.93;;;2.80;99.90;;;;;;4988744;28;20502;-80
2023/01/27 09:45:30;;;;;;;7.07;3.72;;;3.00;99.90;;;;;;4989634;28;20109;-73
2023/01/27 09:48:15;;;;;;;9.52;4.32;;;3.00;99.90;;;;;;4986107;28;20546;-81
2023/01/27 09:51:07;;;;;;;12.25;4.78;;;3.00;99.90;;;;;;4990275;28;20042;-82
2023/01/27 09:53:59;;;;;;;10.10;3.95;;;3.00;99.90;;;;;;4981895;28;20038;-83
2023/01/27 09:56:37;;;;;;;;;;;2.90;99.90;;;;;;4982328;28;20117;-80
2023/01/27 09:59:18;;;;;;;6.72;3.15;;;3.00;99.90;;;;;;4990772;28;19924;-82
2023/01/27 10:02:23;;;;;;;9.57;4.75;;;2.90;99.90;;;;;;4989712;28;20030;-84
2023/01/27 10:05:37;;;;;;;8.38;4.50;;;3.10;99.90;;;;;;4988737;28;20034;-81
2023/01/27 10:08:40;;;;;;;9.23;4.35;;;2.90;99.90;;;;;;4987812;28;20038;-81
2023/01/27 10:11:14;;;;;;;13.25;4.68;;;2.90;99.90;;;;;;4989733;28;20044;-81
2023/01/27 10:14:03;;;;;;;11.77;4.78;;;2.80;99.90;;;;;;4990321;28;20493;-81
2023/01/27 10:16:34;;;;;;;13.82;4.68;;;2.90;99.90;;;;;;4989013;28;20046;-81
2023/01/27 10:19:14;;;;;;;;;;;3.00;99.90;;;;;;4992929;28;20034;-81
2023/01/27 10:22:20;;;;;;;11.32;4.22;;;3.00;99.90;;;;;;4990199;28;19921;-83
2023/01/27 10:24:57;;;;;;;11.90;5.30;;;3.00;99.90;;;;;;4990746;28;20030;-82
2023/01/27 10:27:27;;;;;;;11.35;3.83;;;3.10;99.90;;;;;;4987397;28;20114;-81
2023/01/27 10:30:14;;;;;;;9.85;3.85;;;3.10;99.90;;;;;;4987522;28;20065;-81
2023/01/27 10:32:46;;;;;;;5.60;3.10;;;3.10;99.90;;;;;;4992007;28;20042;-81
2023/01/27 10:35:23;;;;;;;15.95;3.63;;;3.00;99.90;;;;;;4985673;28;20026;-81
2023/01/27 10:38:07;;;;;;;9.77;3.55;;;3.10;99.90;;;;;;4975640;28;20042;-80
2023/01/27 10:41:00;;;;;;;5.82;3.70;;;3.20;99.90;;;;;;5002272;28;20030;-81
2023/01/27 10:43:50;;;;;;;9.95;3.58;;;3.30;99.90;;;;;;4977408;28;20053;-82
2023/01/27 10:46:50;;;;;;;5.82;3.15;;;3.40;99.90;;;;;;4984652;28;20398;-82
2023/01/27 10:49:31;;;;;;;5.45;2.47;;;3.60;99.90;;;;;;4980367;28;20371;-83
2023/01/27 10:52:04;;;;;;;;;;;3.60;99.90;;;;;;5001311;28;20398;-86
2023/01/27 10:54:40;;;;;;;8.05;3.58;;;3.60;99.90;;;;;;4978404;28;19909;-81
2023/01/27 10:57:26;;;;;;;8.95;4.13;;;3.70;99.90;;;;;;4989503;28;20121;-79
2023/01/27 11:00:24;;;;;;;9.13;3.28;;;3.60;99.90;;;;;;4992770;28;20692;-72
2023/01/27 11:02:56;;;;;;;31.08;3.80;;;3.50;99.90;;;;;;4991929;28;20172;-74
2023/01/27 11:05:35;;;;;;;9.70;3.67;;;3.60;99.90;;;;;;4993516;28;20041;-76
2023/01/27 11:08:16;;;;;;;5.40;3.22;;;3.60;99.90;;;;;;4973879;28;20038;-75
2023/01/27 11:13:33;;;;;;;5.97;3.15;;;3.70;99.90;;;;;;4973090;28;20058;-77
2023/01/27 11:16:00;;;;;;;9.52;3.40;;;3.70;99.90;;;;;;4991588;28;20030;-74
2023/01/27 11:18:33;;;;;;;5.40;2.78;;;3.60;99.90;;;;;;4994910;28;20687;-81
2023/01/27 11:21:05;;;;;;;7.03;3.00;;;3.60;99.90;;;;;;4991993;28;20041;-77
2023/01/27 11:23:41;;;;;;;7.85;3.25;;;3.70;99.90;;;;;;4993171;28;20045;-76
2023/01/27 11:26:45;;;;;;;7.97;3.38;;;3.70;99.90;;;;;;4989299;28;20026;-77
2023/01/27 11:29:39;;;;;;;2.90;1.73;;;3.70;99.90;;;;;;4992044;28;20489;-71
2023/01/27 11:32:32;;;;;;;4.93;2.83;;;3.80;99.90;;;;;;4990202;28;20466;-77
2023/01/27 11:35:12;;;;;;;5.07;3.15;;;3.80;99.90;;;;;;4991267;28;20057;-78
2023/01/27 11:37:44;;;;;;;5.60;2.80;;;3.90;99.90;;;;;;4989981;28;20034;-78
2023/01/27 11:40:27;;;;;;;4.40;2.72;;;3.90;99.90;;;;;;4984082;28;20034;-78
2023/01/27 11:42:59;;;;;;;8.38;3.72;;;3.90;99.90;;;;;;4989597;28;20030;-78
2023/01/27 11:45:26;;;;;;;;;;;3.90;99.90;;;;;;4988368;28;20109;-71
2023/01/27 11:47:59;;;;;;;6.25;2.28;;;4.00;99.90;;;;;;4985937;28;19918;-73
2023/01/27 11:50:31;;;;;;;9.00;3.00;;;4.10;99.90;;;;;;4988814;28;20172;-73
2023/01/27 11:53:14;;;;;;;5.57;2.75;;;4.20;99.90;;;;;;4989811;28;20054;-77
2023/01/27 11:55:52;;;;;;;12.35;1.63;;;4.30;99.90;;;;;;4992674;28;20041;-73
2023/01/27 11:58:54;;;;;;;9.55;3.50;;;4.20;99.90;;;;;;4980596;28;20113;-72
2023/01/27 12:01:32;;;;;;;19.77;2.30;;;4.20;99.90;;;;;;4971691;28;20065;-75
2023/01/27 12:04:17;;;;;;;3.05;1.75;;;3.90;99.90;;;;;;4990226;28;20546;-76
2023/01/27 12:06:54;;;;;;;5.82;3.20;;;3.40;99.90;;;;;;4990271;28;20376;-76
2023/01/27 12:09:35;;;;;;;4.20;2.28;;;3.70;99.90;;;;;;4990583;28;20030;-76
2023/01/27 12:12:14;;;;;;;2.38;1.42;;;3.90;99.90;;;;;;4992300;28;20026;-75
2023/01/27 12:14:56;;;;;;;2.13;1.20;;;4.40;99.90;;;;;;4986865;28;20046;-75
2023/01/27 12:17:37;;;;;;;4.95;3.30;;;4.30;99.90;;;;;;4968104;28;20062;-75
2023/01/27 12:20:33;;;;;;;3.38;1.58;;;4.50;99.90;;;;;;4992108;28;20667;-76
2023/01/27 12:23:25;;;;;;;2.08;1.00;;;4.20;99.90;;;;;;4968817;28;20034;-74
2023/01/27 12:26:03;;;;;;;1.50;0.98;;;4.40;99.90;;;;;;4992137;28;20030;-74
2023/01/27 12:28:44;;;;;;;3.05;1.30;;;4.30;99.90;;;;;;4989511;28;20524;-76
2023/01/27 12:31:21;;;;;;;1.97;1.23;;;4.40;99.90;;;;;;4990721;28;20045;-76
2023/01/27 12:34:03;;;;;;;4.07;2.05;;;4.30;99.90;;;;;;4988864;28;20073;-74
2023/01/27 12:36:41;;;;;;;1.90;0.85;;;4.40;99.90;;;;;;4984135;28;20085;-74
2023/01/27 12:39:29;;;;;;;1.83;1.02;;;4.40;99.90;;;;;;4989208;28;20105;-74
2023/01/27 12:41:55;;;;;;;3.15;1.35;;;4.40;99.90;;;;;;4989728;28;20023;-76
2023/01/27 12:44:21;;;;;;;2.03;1.10;;;4.50;99.90;;;;;;4991044;28;20041;-74
2023/01/27 12:47:01;;;;;;;2.17;1.33;;;4.30;99.90;;;;;;4989223;28;20026;-74
2023/01/27 12:49:36;;;;;;;3.05;1.35;;;3.90;99.90;;;;;;4990264;28;20042;-75
2023/01/27 12:52:07;;;;;;;3.72;1.45;;;4.20;99.90;;;;;;4991092;28;20565;-74
2023/01/27 12:54:33;;;;;;;1.10;1.00;;;4.00;99.90;;;;;;4958495;28;20034;-75
2023/01/27 12:57:13;;;;;;;3.00;1.42;;;4.10;99.90;;;;;;4989066;28;20470;-76
2023/01/27 12:59:53;;;;;;;3.05;0.90;;;4.10;99.90;;;;;;4985169;28;20089;-76
2023/01/27 13:02:32;;;;;;;2.75;1.17;;;4.30;99.90;;;;;;4988103;28;20550;-75
2023/01/27 13:05:09;;;;;;;1.38;0.77;;;4.50;99.90;;;;;;4976222;28;20030;-76
2023/01/27 13:07:52;;;;;;;3.75;1.65;;;4.50;99.90;;;;;;4988621;28;20037;-75
2023/01/27 13:10:23;;;;;;;5.15;1.20;;;4.50;99.90;;;;;;4973925;28;20030;-74
2023/01/27 13:12:58;;;;;;;4.88;1.20;;;4.60;99.90;;;;;;4985765;28;20030;-75
2023/01/27 13:15:30;;;;;;;6.47;2.78;;;4.60;99.90;;;;;;4984503;28;20135;-75
2023/01/27 13:17:59;;;;;;;6.55;1.38;;;4.70;99.90;;;;;;4988028;28;20037;-74
2023/01/27 13:20:39;;;;;;;3.08;1.13;;;4.80;99.90;;;;;;4989856;28;20394;-75
2023/01/27 13:23:28;;;;;;;4.43;2.40;;;4.60;99.90;;;;;;4987489;28;20027;-74
2023/01/27 13:26:03;;;;;;;3.70;1.38;;;4.60;99.90;;;;;;4989774;28;20107;-76
2023/01/27 13:28:47;;;;;;;3.85;1.40;;;4.50;99.90;;;;;;4988966;28;20517;-74
2023/01/27 13:31:41;;;;;;;2.83;1.55;;;4.90;99.90;;;;;;4988144;28;20359;-75
2023/01/27 13:34:32;;;;;;;2.70;1.75;;;5.10;99.90;;;;;;4989406;28;20133;-75
2023/01/27 13:37:19;;;;;;;2.22;1.25;;;5.00;99.90;;;;;;4986808;28;20410;-76
2023/01/27 13:40:02;;;;;;;1.80;1.13;;;5.70;99.90;;;;;;4990698;28;20533;-77
2023/01/27 13:42:40;;;;;;;3.75;1.98;;;6.40;99.90;;;;;;4989783;28;20054;-76
2023/01/27 13:45:21;;;;;;;1.17;0.80;;;6.90;99.90;;;;;;4988324;28;20049;-77
2023/01/27 13:48:08;;;;;;;2.22;1.33;;;7.00;99.90;;;;;;4971688;28;20038;-76
2023/01/27 13:51:03;;;;;;;1.27;1.00;;;6.20;99.90;;;;;;4970896;28;20085;-77
2023/01/27 13:53:29;;;;;;;2.95;1.38;;;5.60;99.90;;;;;;4985450;28;20030;-76
2023/01/27 13:56:20;;;;;;;2.00;1.10;;;5.20;99.90;;;;;;4994149;28;20030;-76